createdAt,value
2018-08-20T00:00:11.469Z,100237.55
2018-08-20T00:05:15.142Z,100234.48
2018-08-20T00:10:18.786Z,100240.46
2018-08-20T00:15:22.519Z,100229.91
2018-08-20T00:20:26.324Z,100228.81
2018-08-20T00:25:30.081Z,100231.11
2018-08-20T00:30:33.739Z,100238.64
2018-08-20T00:35:37.402Z,100233.97
2018-08-20T00:40:41.076Z,100234.83
2018-08-20T00:45:44.782Z,100233.63
2018-08-20T00:50:48.476Z,100233.39
2018-08-20T00:55:52.142Z,100238.91
2018-08-20T01:00:55.788Z,100239.41
2018-08-20T01:05:59.482Z,100243.06
2018-08-20T01:11:03.129Z,100246.28
2018-08-20T01:16:06.853Z,100244.53
2018-08-20T01:21:10.573Z,100248.84
2018-08-20T01:26:14.289Z,100257.91
2018-08-20T01:31:18.061Z,100255.20
2018-08-20T01:36:21.722Z,100259.35
2018-08-20T01:41:25.413Z,100262.42
2018-08-20T01:46:29.058Z,100259.47
2018-08-20T01:51:32.648Z,100264.13
2018-08-20T01:56:36.331Z,100262.00
2018-08-20T02:01:39.974Z,100263.94
2018-08-20T02:06:43.663Z,100264.00
2018-08-20T02:11:47.355Z,100260.13
2018-08-20T02:16:51.009Z,100257.91
2018-08-20T02:21:54.747Z,100251.83
2018-08-20T02:26:58.430Z,100252.21
2018-08-20T02:32:02.095Z,100256.97
2018-08-20T02:37:06.150Z,100243.63
2018-08-20T02:42:09.830Z,100234.75
2018-08-20T02:47:13.505Z,100236.26
2018-08-20T02:52:17.205Z,100239.12
2018-08-20T02:57:20.822Z,100238.69
2018-08-20T03:02:24.453Z,100233.26
2018-08-20T03:07:28.212Z,100237.95
2018-08-20T03:12:31.982Z,100232.12
2018-08-20T03:17:35.640Z,100232.82
2018-08-20T03:22:39.339Z,100229.88
2018-08-20T03:27:43.064Z,100240.87
2018-08-20T03:32:46.782Z,100238.47
2018-08-20T03:37:50.505Z,100231.17
2018-08-20T03:42:54.227Z,100240.68
2018-08-20T03:47:58.012Z,100247.59
2018-08-20T03:53:01.684Z,100238.50
2018-08-20T03:58:05.325Z,100236.73
2018-08-20T04:03:08.991Z,100243.51
2018-08-20T04:08:12.911Z,100248.38
2018-08-20T04:13:16.677Z,100247.81
2018-08-20T04:18:20.314Z,100257.66
2018-08-20T04:23:23.997Z,100257.85
2018-08-20T04:28:27.597Z,100250.43
2018-08-20T04:33:31.245Z,100255.17
2018-08-20T04:38:34.841Z,100255.13
2018-08-20T04:43:38.480Z,100251.50
2018-08-20T04:48:42.129Z,100257.83
2018-08-20T04:53:45.771Z,100253.76
2018-08-20T04:58:49.606Z,100261.12
2018-08-20T05:03:53.727Z,100260.81
2018-08-20T05:08:57.413Z,100266.17
2018-08-20T05:14:01.060Z,100263.69
2018-08-20T05:19:04.757Z,100263.26
2018-08-20T05:24:08.371Z,100272.95
2018-08-20T05:29:12.015Z,100277.44
2018-08-20T05:34:15.686Z,100282.88
2018-08-20T05:39:19.322Z,100286.27
2018-08-20T05:44:24.846Z,100292.47
2018-08-20T05:49:28.533Z,100299.25
2018-08-20T05:54:32.159Z,100313.28
2018-08-20T05:59:35.884Z,100317.89
2018-08-20T06:04:39.894Z,100325.48
2018-08-20T06:09:43.569Z,100330.38
2018-08-20T06:14:47.184Z,100326.70
2018-08-20T06:19:50.845Z,100333.56
2018-08-20T06:24:54.483Z,100331.34
2018-08-20T06:29:58.137Z,100331.41
2018-08-20T06:35:02.679Z,100326.59
2018-08-20T06:40:08.278Z,100337.17
2018-08-20T06:45:15.444Z,100344.68
2018-08-20T06:50:19.152Z,100353.88
2018-08-20T06:55:22.996Z,100362.25
2018-08-20T07:00:26.780Z,100366.30
2018-08-20T07:05:30.474Z,100367.28
2018-08-20T07:10:42.248Z,100371.24
2018-08-20T07:15:45.920Z,100365.68
2018-08-20T07:20:49.573Z,100368.90
2018-08-20T07:25:53.344Z,100364.58
2018-08-20T07:30:57.020Z,100371.63
2018-08-20T07:36:00.701Z,100370.52
2018-08-20T07:41:04.526Z,100368.69
2018-08-20T07:46:08.273Z,100364.94
2018-08-20T07:51:11.942Z,100369.72
2018-08-20T07:56:15.687Z,100370.09
2018-08-20T08:01:19.365Z,100373.25
2018-08-20T08:06:23.009Z,100372.63
2018-08-20T08:11:26.753Z,100366.51
2018-08-20T08:16:30.516Z,100369.59
2018-08-20T08:21:34.250Z,100367.98
2018-08-20T08:26:38.116Z,100361.50
2018-08-20T08:31:43.919Z,100367.42
2018-08-20T08:36:47.742Z,100365.22
2018-08-20T08:41:52.133Z,100359.91
2018-08-20T08:46:55.899Z,100350.58
2018-08-20T08:52:00.199Z,100349.98
2018-08-20T08:57:04.107Z,100356.25
2018-08-20T09:02:07.872Z,100347.77
2018-08-20T09:07:11.546Z,100341.61
2018-08-20T09:12:15.255Z,100370.66
2018-08-20T09:17:18.964Z,100347.27
2018-08-20T09:22:22.639Z,100353.29
2018-08-20T09:27:26.430Z,100357.85
2018-08-20T09:32:30.117Z,100341.97
2018-08-20T09:37:33.786Z,100351.80
2018-08-20T09:42:38.161Z,100352.61
2018-08-20T09:47:42.696Z,100361.61
2018-08-20T09:52:46.541Z,100373.46
2018-08-20T09:57:50.229Z,100362.89
2018-08-20T10:02:53.875Z,100367.93
2018-08-20T10:07:57.457Z,100370.23
2018-08-20T10:13:01.204Z,100360.22
2018-08-20T10:18:04.950Z,100368.73
2018-08-20T10:23:08.764Z,100368.50
2018-08-20T10:28:12.466Z,100375.06
2018-08-20T10:33:16.125Z,100376.13
2018-08-20T10:38:19.776Z,100369.66
2018-08-20T10:43:23.382Z,100371.59
2018-08-20T10:48:27.007Z,100378.14
2018-08-20T10:53:30.665Z,100384.54
2018-08-20T10:58:34.335Z,100377.88
2018-08-20T11:03:40.130Z,100398.68
2018-08-20T11:08:43.762Z,100381.94
2018-08-20T11:13:47.828Z,100382.05
2018-08-20T11:18:51.558Z,100386.37
2018-08-20T11:23:57.598Z,100373.05
2018-08-20T11:29:01.274Z,100370.59
2018-08-20T11:34:04.947Z,100351.63
2018-08-20T11:39:14.832Z,100334.73
2018-08-20T11:44:18.495Z,100342.37
2018-08-20T11:49:22.337Z,100349.51
2018-08-20T11:54:27.052Z,100345.31
2018-08-20T11:59:30.723Z,100341.14
2018-08-20T12:04:34.410Z,100345.92
2018-08-20T12:09:38.070Z,100342.11
2018-08-20T12:14:42.634Z,100336.06
2018-08-20T12:19:46.307Z,100332.22
2018-08-20T12:24:49.979Z,100341.20
2018-08-20T12:29:53.871Z,100337.89
2018-08-20T12:34:58.308Z,100325.70
2018-08-20T12:40:05.231Z,100331.61
2018-08-20T12:45:09.031Z,100336.89
2018-08-20T12:50:12.633Z,100336.89
2018-08-20T12:55:16.346Z,100342.31
2018-08-20T13:00:20.042Z,100345.37
2018-08-20T13:05:23.753Z,100341.81
2018-08-20T13:10:27.465Z,100339.95
2018-08-20T13:15:31.119Z,100332.83
2018-08-20T13:20:34.835Z,100332.14
2018-08-20T13:25:38.539Z,100326.36
2018-08-20T13:30:42.231Z,100325.28
2018-08-20T13:35:45.858Z,100330.81
2018-08-20T13:40:49.614Z,100326.25
2018-08-20T13:45:53.309Z,100319.86
2018-08-20T13:50:57.131Z,100318.02
2018-08-20T13:56:00.846Z,100324.78
2018-08-20T14:01:04.652Z,100322.08
2018-08-20T14:11:45.897Z,100318.37
2018-08-20T14:16:49.669Z,100316.02
2018-08-20T14:21:54.099Z,100321.69
2018-08-20T14:26:57.697Z,100315.34
2018-08-20T14:32:01.448Z,100313.25
2018-08-20T14:37:05.610Z,100317.92
2018-08-20T14:42:09.530Z,100313.57
2018-08-20T14:47:13.665Z,100318.74
2018-08-20T14:52:17.741Z,100320.31
2018-08-20T14:57:21.612Z,100318.70
2018-08-20T15:02:26.044Z,100322.88
2018-08-20T15:07:29.891Z,100327.55
2018-08-20T15:12:33.514Z,100326.80
2018-08-20T15:17:37.300Z,100318.53
2018-08-20T15:22:40.986Z,100325.02
2018-08-20T15:27:44.670Z,100323.91
2018-08-20T15:32:48.395Z,100321.05
2018-08-20T15:37:52.058Z,100324.38
2018-08-20T15:42:55.936Z,100327.80
2018-08-20T15:47:59.716Z,100324.97
2018-08-20T15:53:03.370Z,100324.08
2018-08-20T15:58:07.035Z,100321.79
2018-08-20T16:03:10.686Z,100330.83
2018-08-20T16:08:14.500Z,100325.27
2018-08-20T16:13:18.453Z,100321.60
2018-08-20T16:18:22.153Z,100322.55
2018-08-20T16:23:26.119Z,100322.10
2018-08-20T16:28:30.820Z,100324.56
2018-08-20T16:33:34.522Z,100325.77
2018-08-20T16:38:38.258Z,100319.68
2018-08-20T16:43:42.052Z,100325.36
2018-08-20T16:48:45.854Z,100323.10
2018-08-20T16:53:49.621Z,100323.96
2018-08-20T16:58:53.409Z,100319.13
2018-08-20T17:03:57.064Z,100321.70
2018-08-20T17:09:00.748Z,100323.50
2018-08-20T17:14:04.473Z,100322.20
2018-08-20T17:19:08.174Z,100326.13
2018-08-20T17:24:11.920Z,100325.91
2018-08-20T17:29:15.689Z,100329.28
2018-08-20T17:34:19.604Z,100328.08
2018-08-20T17:39:23.370Z,100339.64
2018-08-20T17:44:26.977Z,100340.79
2018-08-20T17:49:31.348Z,100345.41
2018-08-20T17:54:35.079Z,100353.77
2018-08-20T17:59:39.755Z,100345.36
2018-08-20T18:04:44.666Z,100350.52
2018-08-20T18:09:48.360Z,100352.70
2018-08-20T18:14:56.842Z,100354.45
2018-08-20T18:25:09.039Z,100362.05
2018-08-20T18:30:14.243Z,100369.76
2018-08-20T18:35:21.576Z,100366.05
2018-08-20T18:40:25.418Z,100367.72
2018-08-20T18:45:29.306Z,100370.94
2018-08-20T18:50:33.095Z,100373.92
2018-08-20T18:55:36.949Z,100383.27
2018-08-20T19:00:40.784Z,100383.92
2018-08-20T19:05:50.621Z,100390.91
2018-08-20T19:10:54.476Z,100387.70
2018-08-20T19:15:58.246Z,100390.48
2018-08-20T19:21:02.198Z,100393.88
2018-08-20T19:26:06.459Z,100396.48
2018-08-20T19:31:10.593Z,100397.66
2018-08-20T19:36:14.487Z,100402.02
2018-08-20T19:41:18.513Z,100399.76
2018-08-20T19:46:39.420Z,100396.55
2018-08-20T19:51:44.820Z,100399.83
2018-08-20T19:56:48.627Z,100401.58
2018-08-20T20:01:53.346Z,100398.12
2018-08-20T20:06:58.369Z,100402.29
2018-08-20T20:12:02.095Z,100407.00
2018-08-20T20:17:05.949Z,100407.22
2018-08-20T20:22:14.991Z,100403.90
2018-08-20T20:27:18.801Z,100405.76
2018-08-20T20:32:22.567Z,100410.83
2018-08-20T20:37:26.493Z,100418.39
2018-08-20T20:42:31.271Z,100422.32
2018-08-20T20:47:34.958Z,100424.89
2018-08-20T20:52:38.946Z,100417.75
2018-08-20T20:57:42.826Z,100423.03
2018-08-20T21:02:46.701Z,100427.85
2018-08-20T21:07:50.865Z,100426.85
2018-08-20T21:12:54.685Z,100425.50
2018-08-20T21:17:58.631Z,100429.06
2018-08-20T21:23:02.419Z,100433.99
2018-08-20T21:28:06.060Z,100438.20
2018-08-20T21:33:10.436Z,100444.59
2018-08-20T21:38:14.125Z,100444.34
2018-08-20T21:43:17.737Z,100448.77
2018-08-20T21:48:21.471Z,100451.27
2018-08-20T21:53:30.449Z,100451.77
2018-08-20T21:58:35.605Z,100445.95
2018-08-20T22:03:39.940Z,100460.41
2018-08-20T22:08:43.720Z,100457.81
2018-08-20T22:13:48.058Z,100457.70
2018-08-20T22:18:58.423Z,100460.77
2018-08-20T22:24:03.425Z,100463.59
2018-08-20T22:29:07.134Z,100472.73
2018-08-20T22:34:10.834Z,100466.45
2018-08-20T22:39:14.549Z,100471.16
2018-08-20T22:44:18.300Z,100480.87
2018-08-20T22:49:22.142Z,100478.66
2018-08-20T22:54:25.875Z,100485.58
2018-08-20T22:59:29.655Z,100484.08
2018-08-20T23:04:33.337Z,100485.44
2018-08-20T23:09:37.045Z,100488.93
2018-08-20T23:14:40.826Z,100484.97
2018-08-20T23:19:44.481Z,100491.25
2018-08-20T23:24:52.210Z,100494.11
2018-08-20T23:29:55.885Z,100501.03
2018-08-20T23:35:00.008Z,100506.31
2018-08-20T23:40:07.309Z,100509.67
2018-08-20T23:45:10.978Z,100508.17
2018-08-20T23:50:14.689Z,100510.03
2018-08-20T23:55:18.360Z,100517.05
